Time;durP1;ratioP1;P1;durP2;ratioP2;P2;SDS_P1;SDS_P2;PMS_P1;PMS_P2;Temp;Humidity;BMP_temperature;BMP_pressure;BME280_temperature;BME280_humidity;BME280_pressure;Samples;Min_cycle;Max_cycle;Signal;HPM_P1;HPM_P2
2023/08/27 00:01:59;;;;;;;8.57;7.82;;;23.30;99.90;;;;;;5080474;28;20200;-75
2023/08/27 00:04:25;;;;;;;8.85;7.82;;;23.20;99.90;;;;;;5080798;28;20167;-76
2023/08/27 00:06:51;;;;;;;8.00;7.20;;;23.20;99.90;;;;;;5078842;28;20171;-75
2023/08/27 00:09:16;;;;;;;8.20;7.40;;;23.20;99.90;;;;;;5079198;28;20171;-77
2023/08/27 00:11:43;;;;;;;10.37;7.50;;;23.10;99.90;;;;;;5082793;28;20227;-78
2023/08/27 00:14:09;;;;;;;7.93;7.32;;;23.10;99.90;;;;;;5078557;28;20192;-77
2023/08/27 00:16:36;;;;;;;7.78;7.03;;;23.10;99.90;;;;;;5075903;28;20722;-77
2023/08/27 00:19:03;;;;;;;11.40;7.60;;;23.10;99.90;;;;;;5080998;28;20289;-76
2023/08/27 00:21:29;;;;;;;8.23;7.43;;;23.10;99.90;;;;;;5096162;28;20164;-76
2023/08/27 00:23:56;;;;;;;7.93;7.13;;;23.10;99.90;;;;;;5076141;28;20535;-77
2023/08/27 00:26:22;;;;;;;9.15;7.65;;;23.00;99.90;;;;;;5076107;28;20171;-77
2023/08/27 00:28:48;;;;;;;8.40;7.60;;;23.00;99.90;;;;;;5075010;28;20259;-76
2023/08/27 00:31:13;;;;;;;8.37;7.50;;;22.90;99.90;;;;;;5077600;28;20199;-78
2023/08/27 00:33:39;;;;;;;8.20;7.50;;;22.90;99.90;;;;;;5077359;28;20568;-77
2023/08/27 00:36:05;;;;;;;7.93;7.17;;;22.90;99.90;;;;;;5075503;28;20182;-76
2023/08/27 00:38:31;;;;;;;7.67;7.00;;;22.90;99.90;;;;;;5075257;28;20179;-78
2023/08/27 00:40:56;;;;;;;7.50;6.80;;;22.90;99.90;;;;;;5075208;28;20163;-77
2023/08/27 00:43:22;;;;;;;7.88;7.10;;;22.90;99.90;;;;;;5075185;28;20684;-77
2023/08/27 00:45:48;;;;;;;10.30;7.07;;;22.80;99.90;;;;;;5075119;28;20183;-77
2023/08/27 00:48:14;;;;;;;7.10;6.50;;;22.70;99.90;;;;;;5074990;28;20198;-77
2023/08/27 00:50:41;;;;;;;8.27;7.00;;;22.70;99.90;;;;;;5075059;28;20228;-77
2023/08/27 00:53:06;;;;;;;8.30;6.77;;;22.50;99.90;;;;;;5081662;28;20199;-77
2023/08/27 00:55:34;;;;;;;7.93;7.23;;;22.40;99.90;;;;;;5074840;28;20167;-78
2023/08/27 00:58:00;;;;;;;8.17;7.23;;;22.40;99.90;;;;;;5074908;28;20293;-77
2023/08/27 01:00:27;;;;;;;8.77;6.57;;;22.50;99.90;;;;;;5074637;28;20579;-76
2023/08/27 01:02:52;;;;;;;8.27;6.97;;;22.60;99.90;;;;;;5074987;28;20229;-76
2023/08/27 01:05:20;;;;;;;7.90;7.10;;;22.60;99.90;;;;;;5080668;28;20167;-76
2023/08/27 01:08:06;;;;;;;7.93;6.87;;;22.70;99.90;;;;;;5084635;28;20588;-76
2023/08/27 01:10:41;;;;;;;7.53;6.53;;;22.70;99.90;;;;;;5076140;28;20159;-76
2023/08/27 01:13:16;;;;;;;7.03;6.40;;;22.60;99.90;;;;;;5057640;28;20196;-78
2023/08/27 01:15:44;;;;;;;7.40;6.80;;;22.50;99.90;;;;;;5047866;28;20188;-76
2023/08/27 01:18:12;;;;;;;8.97;7.17;;;22.40;99.90;;;;;;5040324;28;20177;-78
2023/08/27 01:20:38;;;;;;;10.10;7.20;;;22.30;99.90;;;;;;5034535;28;20184;-76
2023/08/27 01:23:04;;;;;;;8.27;7.50;;;23.40;99.90;;;;;;5035122;28;20176;-78
2023/08/27 01:25:39;;;;;;;8.23;6.73;;;22.30;99.90;;;;;;5046929;28;20187;-77
2023/08/27 01:28:16;;;;;;;7.90;7.20;;;22.30;99.90;;;;;;5047744;28;20241;-78
2023/08/27 01:31:11;;;;;;;7.83;7.23;;;22.30;99.90;;;;;;5050556;28;20214;-77
2023/08/27 01:33:38;;;;;;;6.77;6.27;;;22.30;99.90;;;;;;5033221;28;20220;-77
2023/08/27 01:36:05;;;;;;;11.00;7.70;;;22.30;99.90;;;;;;5033721;28;20172;-78
2023/08/27 01:38:31;;;;;;;8.97;6.97;;;22.30;99.90;;;;;;5034425;28;20177;-76
2023/08/27 01:40:57;;;;;;;7.63;6.90;;;22.30;99.90;;;;;;5034465;28;20187;-77
2023/08/27 01:43:23;;;;;;;8.20;7.47;;;22.30;99.90;;;;;;5034158;28;20169;-77
2023/08/27 01:45:48;;;;;;;7.77;7.07;;;22.30;99.90;;;;;;5033826;28;20172;-77
2023/08/27 01:48:14;;;;;;;8.10;7.37;;;22.30;99.90;;;;;;5034293;28;20254;-77
2023/08/27 01:50:40;;;;;;;7.53;6.83;;;22.20;99.90;;;;;;5034350;28;20264;-77
2023/08/27 01:53:06;;;;;;;7.97;7.17;;;22.20;99.90;;;;;;5036084;28;20200;-76
2023/08/27 01:55:32;;;;;;;8.00;7.30;;;22.20;99.90;;;;;;5034221;28;20259;-76
2023/08/27 01:57:57;;;;;;;9.20;7.87;;;22.20;99.90;;;;;;5032921;28;20180;-77
2023/08/27 02:00:23;;;;;;;9.07;7.40;;;22.20;99.90;;;;;;5034775;28;20643;-77
2023/08/27 02:02:50;;;;;;;7.87;7.10;;;22.20;99.90;;;;;;5034248;28;20546;-78
2023/08/27 02:05:16;;;;;;;8.13;7.37;;;22.10;99.90;;;;;;5034262;28;20219;-78
2023/08/27 02:07:41;;;;;;;10.57;7.47;;;22.10;99.90;;;;;;5035664;28;20176;-76
2023/08/27 02:10:08;;;;;;;8.10;7.40;;;22.10;99.90;;;;;;5038148;28;20172;-77
2023/08/27 02:12:34;;;;;;;8.20;7.33;;;22.10;99.90;;;;;;5068886;28;20230;-78
2023/08/27 02:15:03;;;;;;;7.57;6.87;;;22.10;99.90;;;;;;5095259;28;20216;-77
2023/08/27 02:17:29;;;;;;;8.27;7.30;;;22.00;99.90;;;;;;5074391;28;20258;-78
2023/08/27 02:19:54;;;;;;;7.83;7.10;;;22.00;99.90;;;;;;5073694;28;20202;-77
2023/08/27 02:22:20;;;;;;;7.80;7.03;;;22.00;99.90;;;;;;5073681;28;20163;-77
2023/08/27 02:24:46;;;;;;;7.80;7.00;;;22.00;99.90;;;;;;5074173;28;20649;-78
2023/08/27 02:27:12;;;;;;;8.10;7.30;;;22.00;99.90;;;;;;5073763;28;20190;-76
2023/08/27 02:29:37;;;;;;;8.27;7.53;;;21.90;99.90;;;;;;5076704;28;20202;-76
2023/08/27 02:32:04;;;;;;;8.37;7.43;;;21.80;99.90;;;;;;5076086;28;20230;-76
2023/08/27 02:34:30;;;;;;;7.70;7.00;;;21.70;99.90;;;;;;5073591;28;20167;-77
2023/08/27 02:36:56;;;;;;;9.00;8.23;;;21.80;99.90;;;;;;5073389;28;20182;-76
2023/08/27 02:39:22;;;;;;;7.63;7.03;;;21.80;99.90;;;;;;5073171;28;20174;-76
2023/08/27 02:41:48;;;;;;;8.63;7.60;;;21.70;99.90;;;;;;5073379;28;20179;-77
2023/08/27 02:44:14;;;;;;;9.57;8.23;;;21.70;99.90;;;;;;5073761;28;20170;-76
2023/08/27 02:46:39;;;;;;;9.07;7.47;;;21.70;99.90;;;;;;5073186;28;20179;-76
2023/08/27 02:49:05;;;;;;;8.87;7.97;;;21.80;99.90;;;;;;5073005;28;20217;-75
2023/08/27 02:51:31;;;;;;;9.97;8.23;;;21.80;99.90;;;;;;5073274;28;20244;-76
2023/08/27 02:53:57;;;;;;;8.77;7.90;;;21.70;99.90;;;;;;5073049;28;20171;-77
2023/08/27 02:56:23;;;;;;;9.00;8.10;;;21.60;99.90;;;;;;5073227;28;20174;-77
2023/08/27 02:58:49;;;;;;;9.07;8.27;;;21.60;99.90;;;;;;5074594;28;20179;-78
2023/08/27 03:01:21;;;;;;;9.27;8.37;;;21.70;99.90;;;;;;5086696;28;20168;-78
2023/08/27 03:03:47;;;;;;;9.43;8.27;;;21.80;99.90;;;;;;5078546;28;20213;-77
2023/08/27 03:06:13;;;;;;;8.73;8.03;;;21.80;99.90;;;;;;5082949;28;20250;-76
2023/08/27 03:08:40;;;;;;;9.57;8.77;;;21.80;99.90;;;;;;5074689;28;20651;-79
2023/08/27 03:11:05;;;;;;;9.17;8.37;;;21.80;99.90;;;;;;5073278;28;20223;-78
2023/08/27 03:13:31;;;;;;;9.27;8.37;;;21.90;99.90;;;;;;5073127;28;20286;-77
2023/08/27 03:15:58;;;;;;;11.33;8.63;;;22.00;99.90;;;;;;5073396;28;20225;-78
2023/08/27 03:18:24;;;;;;;9.87;8.20;;;21.90;99.90;;;;;;5082252;28;20186;-78
2023/08/27 03:20:50;;;;;;;9.57;8.50;;;21.90;99.90;;;;;;5083540;28;20175;-76
2023/08/27 03:23:17;;;;;;;8.93;8.07;;;21.90;99.90;;;;;;5063415;28;20186;-77
2023/08/27 03:25:43;;;;;;;9.20;8.30;;;22.00;99.90;;;;;;5080116;28;20531;-76
2023/08/27 03:28:09;;;;;;;9.17;8.27;;;22.10;99.90;;;;;;5076938;28;20179;-77
2023/08/27 03:30:34;;;;;;;9.23;8.43;;;22.10;99.90;;;;;;5080849;28;20250;-76
2023/08/27 03:33:00;;;;;;;9.40;8.13;;;22.00;99.90;;;;;;5078845;28;20569;-76
2023/08/27 03:35:26;;;;;;;9.67;8.17;;;22.00;99.90;;;;;;5078896;28;20172;-77
2023/08/27 03:37:52;;;;;;;8.57;7.80;;;22.00;99.90;;;;;;5075474;28;20171;-77
2023/08/27 03:40:18;;;;;;;8.27;7.47;;;22.10;99.90;;;;;;5076247;28;20203;-77
2023/08/27 03:42:43;;;;;;;8.67;7.83;;;22.10;99.90;;;;;;5075436;28;20167;-78
2023/08/27 03:45:10;;;;;;;8.87;7.70;;;22.00;99.90;;;;;;5076479;28;20178;-77
2023/08/27 03:47:35;;;;;;;8.80;7.90;;;22.00;99.90;;;;;;5076127;28;20178;-77
2023/08/27 03:50:01;;;;;;;9.40;8.03;;;22.00;99.90;;;;;;5078303;28;20163;-78
2023/08/27 03:52:27;;;;;;;8.57;7.77;;;22.00;99.90;;;;;;5079381;28;20558;-77
2023/08/27 03:54:53;;;;;;;7.33;6.73;;;22.00;99.90;;;;;;5083449;28;20170;-75
2023/08/27 03:57:18;;;;;;;8.80;7.50;;;22.00;99.90;;;;;;5076066;28;20648;-76
2023/08/27 03:59:44;;;;;;;8.63;7.83;;;22.00;99.90;;;;;;5076034;28;20178;-77
2023/08/27 04:02:10;;;;;;;7.97;7.23;;;22.00;99.90;;;;;;5075927;28;20177;-75
2023/08/27 04:04:36;;;;;;;8.90;7.73;;;22.00;99.90;;;;;;5075777;28;20171;-76
2023/08/27 04:07:03;;;;;;;9.13;8.33;;;22.00;99.90;;;;;;5089544;28;20179;-78
2023/08/27 04:09:29;;;;;;;11.47;8.10;;;22.00;99.90;;;;;;5090525;28;20179;-76
2023/08/27 04:11:55;;;;;;;8.13;7.30;;;21.90;99.90;;;;;;5075713;28;20227;-75
2023/08/27 04:14:21;;;;;;;9.00;8.10;;;21.90;99.90;;;;;;5075703;28;20171;-75
2023/08/27 04:16:47;;;;;;;8.40;7.60;;;21.80;99.90;;;;;;5075818;28;20615;-79
2023/08/27 04:19:13;;;;;;;7.87;7.07;;;21.90;99.90;;;;;;5075720;28;20202;-78
2023/08/27 04:21:39;;;;;;;8.40;7.63;;;22.00;99.90;;;;;;5057944;28;20586;-75
2023/08/27 04:24:05;;;;;;;8.33;7.63;;;22.00;99.90;;;;;;5075454;28;20171;-76
2023/08/27 04:26:31;;;;;;;8.63;7.67;;;22.00;99.90;;;;;;5075325;28;20179;-77
2023/08/27 04:28:57;;;;;;;9.70;8.00;;;22.00;99.90;;;;;;5075555;28;20179;-76
2023/08/27 04:31:22;;;;;;;8.87;7.70;;;22.10;99.90;;;;;;5075058;28;20181;-76
2023/08/27 04:33:48;;;;;;;8.40;7.60;;;22.10;99.90;;;;;;5074954;28;20210;-76
2023/08/27 04:36:14;;;;;;;9.57;7.90;;;22.20;99.90;;;;;;5075234;28;20175;-75
2023/08/27 04:38:40;;;;;;;8.20;7.40;;;22.30;99.90;;;;;;5075156;28;20186;-77
2023/08/27 04:41:05;;;;;;;8.17;7.47;;;22.20;99.90;;;;;;5075521;28;20648;-75
2023/08/27 04:43:31;;;;;;;8.03;7.30;;;22.20;99.90;;;;;;5074757;28;20653;-77
2023/08/27 04:45:57;;;;;;;9.00;7.57;;;22.20;99.90;;;;;;5075013;28;20198;-77
2023/08/27 04:48:23;;;;;;;9.77;7.60;;;22.20;99.90;;;;;;5075346;28;20167;-77
2023/08/27 04:50:49;;;;;;;7.17;6.57;;;22.30;99.90;;;;;;5077047;28;20649;-77
2023/08/27 04:53:14;;;;;;;7.83;7.23;;;22.30;99.90;;;;;;5074910;28;20582;-77
2023/08/27 04:55:42;;;;;;;7.43;6.83;;;22.30;99.90;;;;;;5075069;28;20173;-77
2023/08/27 04:58:08;;;;;;;7.17;6.47;;;22.30;99.90;;;;;;5057016;28;20186;-79
2023/08/27 05:00:34;;;;;;;5.87;5.27;;;22.20;99.90;;;;;;5074960;28;20166;-78
2023/08/27 05:03:02;;;;;;;5.63;5.20;;;22.10;99.90;;;;;;5074704;28;20174;-78
2023/08/27 05:05:28;;;;;;;5.60;5.20;;;22.10;99.90;;;;;;5075257;28;20174;-77
2023/08/27 05:07:54;;;;;;;6.00;5.37;;;22.10;99.90;;;;;;5087716;28;20175;-78
2023/08/27 05:10:20;;;;;;;8.37;5.67;;;22.10;99.90;;;;;;5082121;28;20213;-76
2023/08/27 05:12:46;;;;;;;6.10;5.53;;;22.10;99.90;;;;;;5074669;28;20626;-76
2023/08/27 05:15:12;;;;;;;5.10;4.60;;;22.10;99.90;;;;;;5074611;28;20246;-76
2023/08/27 05:17:38;;;;;;;5.07;4.57;;;22.20;99.90;;;;;;5074582;28;20259;-77
2023/08/27 05:20:04;;;;;;;4.93;4.33;;;22.00;99.90;;;;;;5075586;28;20644;-76
2023/08/27 05:22:30;;;;;;;4.63;4.05;;;22.00;99.90;;;;;;5080613;28;20182;-75
2023/08/27 05:24:56;;;;;;;4.43;4.10;;;22.00;99.90;;;;;;5074945;28;20175;-77
2023/08/27 05:27:23;;;;;;;4.00;3.60;;;21.90;99.90;;;;;;5074469;28;20209;-75
2023/08/27 05:29:48;;;;;;;4.80;4.40;;;21.90;99.90;;;;;;5077236;28;20179;-77
2023/08/27 05:32:14;;;;;;;4.03;3.73;;;21.90;99.90;;;;;;5059090;28;20677;-77
2023/08/27 05:34:40;;;;;;;4.60;4.27;;;22.00;99.90;;;;;;5074645;28;20174;-75
2023/08/27 05:37:05;;;;;;;4.33;4.03;;;21.90;99.90;;;;;;5076346;28;20217;-76
2023/08/27 05:39:31;;;;;;;3.97;3.63;;;21.90;99.90;;;;;;5078424;28;20163;-77
2023/08/27 05:41:57;;;;;;;4.07;3.77;;;21.90;99.90;;;;;;5059960;28;20545;-77
2023/08/27 05:44:23;;;;;;;4.40;3.63;;;22.00;99.90;;;;;;5074967;28;20178;-76
2023/08/27 05:46:48;;;;;;;5.10;4.30;;;22.10;99.90;;;;;;5073930;28;20168;-76
2023/08/27 05:49:14;;;;;;;4.10;3.80;;;22.10;99.90;;;;;;5074724;28;20275;-74
2023/08/27 05:51:40;;;;;;;3.60;3.40;;;22.20;99.90;;;;;;5075443;28;20658;-77
2023/08/27 05:54:07;;;;;;;6.00;3.77;;;22.20;99.90;;;;;;5074616;28;20198;-77
2023/08/27 05:56:33;;;;;;;3.90;3.47;;;22.30;99.90;;;;;;5075548;28;20246;-77
2023/08/27 05:58:58;;;;;;;3.83;3.50;;;22.30;99.90;;;;;;5076477;28;20642;-78
2023/08/27 06:01:24;;;;;;;3.70;3.40;;;22.30;99.90;;;;;;5094626;28;20213;-77
2023/08/27 06:03:50;;;;;;;3.73;3.50;;;22.20;99.90;;;;;;5080648;28;20856;-76
2023/08/27 06:06:16;;;;;;;3.40;3.17;;;22.30;99.90;;;;;;5074344;28;20175;-76
2023/08/27 06:08:41;;;;;;;3.40;3.20;;;22.30;99.90;;;;;;5074669;28;20175;-76
2023/08/27 06:11:08;;;;;;;3.80;3.10;;;22.30;99.90;;;;;;5081982;28;20287;-76
2023/08/27 06:13:33;;;;;;;3.00;2.90;;;22.40;99.90;;;;;;5074609;28;20210;-76
2023/08/27 06:16:00;;;;;;;3.33;3.13;;;22.40;99.90;;;;;;5083523;28;20218;-76
2023/08/27 06:18:26;;;;;;;3.50;3.30;;;22.50;99.90;;;;;;5079226;28;20183;-78
2023/08/27 06:20:52;;;;;;;3.00;2.90;;;22.50;99.90;;;;;;5073263;28;20179;-78
2023/08/27 06:23:18;;;;;;;3.77;2.90;;;22.40;99.90;;;;;;5073349;28;20182;-75
2023/08/27 06:25:44;;;;;;;3.07;2.87;;;22.50;99.90;;;;;;5073517;28;20178;-76
2023/08/27 06:28:10;;;;;;;3.40;3.10;;;22.40;99.90;;;;;;5073421;28;20179;-75
2023/08/27 06:30:41;;;;;;;3.00;2.80;;;22.60;99.90;;;;;;5073543;28;20186;-76
2023/08/27 06:33:09;;;;;;;3.33;3.13;;;22.70;99.90;;;;;;5055514;28;20210;-75
2023/08/27 06:35:35;;;;;;;3.10;3.00;;;22.80;99.90;;;;;;5073164;28;20163;-76
2023/08/27 06:38:01;;;;;;;2.85;2.67;;;22.90;99.90;;;;;;5073289;28;20178;-78
2023/08/27 06:40:28;;;;;;;2.83;2.40;;;23.00;99.90;;;;;;5055958;28;20183;-76
2023/08/27 06:42:55;;;;;;;2.47;2.37;;;23.10;99.90;;;;;;5075448;28;20163;-77
2023/08/27 06:45:21;;;;;;;2.25;2.15;;;23.10;99.90;;;;;;5082937;28;20167;-76
2023/08/27 06:47:47;;;;;;;2.60;2.17;;;23.20;99.90;;;;;;5077211;28;20231;-76
2023/08/27 06:50:13;;;;;;;2.30;2.20;;;23.30;99.90;;;;;;5081598;28;20250;-76
2023/08/27 06:52:39;;;;;;;2.20;2.10;;;23.40;99.90;;;;;;5073665;28;20211;-76
2023/08/27 06:55:04;;;;;;;2.55;2.35;;;23.40;99.90;;;;;;5074474;28;20213;-76
2023/08/27 06:57:30;;;;;;;2.60;2.40;;;23.40;99.90;;;;;;5074699;28;20175;-79
2023/08/27 06:59:56;;;;;;;3.42;2.50;;;23.40;99.90;;;;;;5075931;28;20171;-77
2023/08/27 07:02:22;;;;;;;3.00;2.80;;;23.60;99.90;;;;;;5076828;28;20172;-76
2023/08/27 07:04:48;;;;;;;2.58;2.47;;;23.50;99.90;;;;;;5073410;28;20180;-76
2023/08/27 07:07:13;;;;;;;4.22;3.83;;;23.50;99.90;;;;;;5076849;28;20207;-75
2023/08/27 07:09:40;;;;;;;3.00;2.80;;;23.50;99.90;;;;;;5079395;28;20174;-76
2023/08/27 07:12:06;;;;;;;4.30;2.63;;;23.50;99.90;;;;;;5082539;28;20636;-79
2023/08/27 07:14:32;;;;;;;2.78;2.58;;;23.60;99.90;;;;;;5079002;28;20183;-76
2023/08/27 07:16:58;;;;;;;2.72;2.63;;;23.70;99.90;;;;;;5077139;28;20203;-78
2023/08/27 07:19:23;;;;;;;2.88;2.67;;;23.80;99.90;;;;;;5077658;28;20229;-79
2023/08/27 07:21:49;;;;;;;4.28;3.97;;;23.90;99.90;;;;;;5077533;28;20196;-76
2023/08/27 07:24:15;;;;;;;2.97;2.60;;;24.00;99.90;;;;;;5077949;28;20171;-77
2023/08/27 07:26:41;;;;;;;3.95;3.55;;;24.10;99.90;;;;;;5077840;28;20167;-76
2023/08/27 07:29:06;;;;;;;3.58;3.33;;;24.10;99.90;;;;;;5064136;28;20256;-75
2023/08/27 07:31:32;;;;;;;2.95;2.75;;;24.20;99.90;;;;;;5078678;28;20167;-76
2023/08/27 07:33:59;;;;;;;3.17;3.03;;;24.20;99.90;;;;;;5076680;28;20215;-75
2023/08/27 07:36:25;;;;;;;3.22;3.03;;;24.30;99.90;;;;;;5076580;28;20644;-76
2023/08/27 07:38:52;;;;;;;3.40;3.20;;;24.40;99.90;;;;;;5076460;28;20171;-75
2023/08/27 07:41:17;;;;;;;3.42;3.20;;;24.50;99.90;;;;;;5076644;28;20195;-77
2023/08/27 07:43:43;;;;;;;3.20;3.00;;;24.50;99.90;;;;;;5076759;28;20248;-77
2023/08/27 07:46:09;;;;;;;3.30;3.10;;;24.60;99.90;;;;;;5076117;28;20163;-77
2023/08/27 07:48:34;;;;;;;3.67;3.38;;;24.50;99.90;;;;;;5076756;28;20531;-77
2023/08/27 07:51:02;;;;;;;3.30;3.10;;;24.40;99.90;;;;;;5080213;28;20167;-76
2023/08/27 07:53:28;;;;;;;3.42;3.22;;;24.40;99.90;;;;;;5081553;28;20202;-76
2023/08/27 07:55:54;;;;;;;3.30;3.10;;;24.40;99.90;;;;;;5096877;28;20163;-76
2023/08/27 07:58:21;;;;;;;3.75;3.50;;;24.40;99.90;;;;;;5080046;28;20591;-76
2023/08/27 08:00:48;;;;;;;3.60;3.10;;;24.40;99.90;;;;;;5077011;28;20163;-78
2023/08/27 08:03:14;;;;;;;3.55;3.35;;;24.30;99.90;;;;;;5076997;28;20224;-77
2023/08/27 08:05:39;;;;;;;3.50;3.30;;;24.10;99.90;;;;;;5082532;28;20685;-77
2023/08/27 08:08:05;;;;;;;3.70;3.40;;;24.10;99.90;;;;;;5083290;28;20178;-78
2023/08/27 08:10:31;;;;;;;3.50;3.20;;;23.90;99.90;;;;;;5075724;28;20175;-77
2023/08/27 08:12:56;;;;;;;3.30;3.10;;;23.80;99.90;;;;;;5075630;28;20230;-76
2023/08/27 08:15:22;;;;;;;3.95;3.75;;;23.90;99.90;;;;;;5075859;28;20183;-77
2023/08/27 08:17:48;;;;;;;3.58;3.35;;;23.90;99.90;;;;;;5075245;28;20190;-75
2023/08/27 08:20:14;;;;;;;3.65;3.45;;;24.00;99.90;;;;;;5075922;28;20168;-78
2023/08/27 08:22:40;;;;;;;3.63;3.42;;;24.20;99.90;;;;;;5075534;28;20692;-77
2023/08/27 08:25:07;;;;;;;3.50;3.30;;;24.30;99.90;;;;;;5075543;28;20167;-77
2023/08/27 08:27:33;;;;;;;4.55;4.25;;;24.30;99.90;;;;;;5077698;28;20183;-77
2023/08/27 08:30:04;;;;;;;4.20;3.90;;;24.20;99.90;;;;;;5066811;28;20190;-77
2023/08/27 08:32:29;;;;;;;4.00;3.70;;;24.20;99.90;;;;;;5075362;28;20214;-78
2023/08/27 08:34:55;;;;;;;4.55;4.15;;;24.20;99.90;;;;;;5075657;28;20252;-76
2023/08/27 08:37:21;;;;;;;4.72;4.38;;;24.10;99.90;;;;;;5075955;28;20167;-76
2023/08/27 08:39:47;;;;;;;4.70;4.30;;;24.10;99.90;;;;;;5076233;28;20186;-77
2023/08/27 08:42:34;;;;;;;4.32;3.90;;;24.20;99.90;;;;;;5076540;28;20183;-77
2023/08/27 08:45:27;;;;;;;4.80;4.40;;;24.40;99.90;;;;;;5082679;28;20181;-78
2023/08/27 08:47:54;;;;;;;4.57;4.28;;;24.50;99.90;;;;;;5081646;28;20148;-77
2023/08/27 08:50:22;;;;;;;4.72;4.40;;;24.70;99.90;;;;;;5084796;28;20167;-78
2023/08/27 08:52:50;;;;;;;4.95;4.38;;;24.50;99.90;;;;;;5076971;28;20199;-76
2023/08/27 08:55:18;;;;;;;4.57;4.20;;;24.50;99.90;;;;;;5076654;28;20174;-77
2023/08/27 08:57:49;;;;;;;4.10;3.80;;;24.60;99.90;;;;;;5076215;28;20175;-76
2023/08/27 09:00:16;;;;;;;4.43;4.15;;;24.70;99.90;;;;;;5075961;28;20160;-76
2023/08/27 09:02:42;;;;;;;7.40;4.32;;;24.80;99.90;;;;;;5057754;28;20228;-76
2023/08/27 09:05:12;;;;;;;5.00;4.60;;;24.60;99.90;;;;;;5074814;28;20223;-76
2023/08/27 09:07:39;;;;;;;4.50;4.20;;;24.50;99.90;;;;;;5076002;28;20193;-76
2023/08/27 09:10:05;;;;;;;4.70;4.40;;;24.40;99.90;;;;;;5076180;28;20241;-76
2023/08/27 09:12:31;;;;;;;5.30;4.90;;;24.40;99.90;;;;;;5075080;28;20265;-76
2023/08/27 09:14:57;;;;;;;5.68;5.15;;;24.20;99.90;;;;;;5057250;28;20646;-76
2023/08/27 09:17:23;;;;;;;5.88;4.85;;;24.20;99.90;;;;;;5075698;28;20202;-77
2023/08/27 09:19:51;;;;;;;5.13;4.63;;;24.20;99.90;;;;;;5079576;28;20175;-76
2023/08/27 09:22:18;;;;;;;5.40;4.95;;;24.20;99.90;;;;;;5075720;28;20195;-76
2023/08/27 09:24:45;;;;;;;7.15;6.28;;;24.30;99.90;;;;;;5074478;28;20705;-77
2023/08/27 09:27:12;;;;;;;9.52;8.10;;;24.40;99.90;;;;;;5075244;28;20250;-77
2023/08/27 09:29:41;;;;;;;7.13;6.07;;;24.50;99.90;;;;;;5074576;28;20179;-77
2023/08/27 09:32:06;;;;;;;6.03;5.53;;;24.60;99.90;;;;;;5081029;28;20210;-76
2023/08/27 09:34:41;;;;;;;6.90;5.03;;;24.60;99.90;;;;;;5064196;28;20546;-77
2023/08/27 09:37:07;;;;;;;5.07;4.75;;;24.60;99.90;;;;;;5074723;28;20159;-76
2023/08/27 09:39:33;;;;;;;5.43;5.03;;;24.70;99.90;;;;;;5056816;28;20182;-77
2023/08/27 09:41:59;;;;;;;5.10;4.80;;;24.90;99.90;;;;;;5075945;28;20195;-77
2023/08/27 09:44:25;;;;;;;5.38;4.97;;;25.10;99.90;;;;;;5075910;28;20281;-78
2023/08/27 09:46:51;;;;;;;5.32;4.93;;;25.20;99.90;;;;;;5076443;28;20195;-77
2023/08/27 09:49:22;;;;;;;4.95;4.65;;;25.30;99.90;;;;;;5088566;28;20201;-77
2023/08/27 09:51:48;;;;;;;5.47;5.07;;;25.30;99.90;;;;;;5086454;28;20229;-78
2023/08/27 09:54:17;;;;;;;6.78;5.68;;;25.30;99.90;;;;;;5074749;28;20195;-77
2023/08/27 09:56:45;;;;;;;5.22;4.93;;;25.30;99.90;;;;;;5075476;28;20196;-76
2023/08/27 09:59:15;;;;;;;6.30;5.30;;;25.40;99.90;;;;;;5075570;28;20179;-77
2023/08/27 10:01:45;;;;;;;5.60;5.20;;;25.60;99.90;;;;;;5075773;28;20167;-77
2023/08/27 10:04:11;;;;;;;5.80;5.32;;;25.70;99.90;;;;;;5077060;28;20175;-77
2023/08/27 10:06:37;;;;;;;5.78;5.28;;;25.90;99.90;;;;;;5077066;28;20159;-78
2023/08/27 10:09:03;;;;;;;5.82;5.32;;;26.00;99.90;;;;;;5079118;28;20564;-78
2023/08/27 10:11:31;;;;;;;5.50;5.10;;;26.00;99.90;;;;;;5078830;28;20302;-76
2023/08/27 10:13:59;;;;;;;5.80;5.40;;;26.10;99.90;;;;;;5076097;28;20203;-77
2023/08/27 10:16:25;;;;;;;14.18;9.82;;;26.10;99.90;;;;;;5074797;28;20174;-77
2023/08/27 10:18:52;;;;;;;6.75;6.25;;;26.20;99.90;;;;;;5074696;28;20167;-76
2023/08/27 10:21:18;;;;;;;6.63;6.10;;;26.10;99.90;;;;;;5073249;28;20178;-77
2023/08/27 10:23:45;;;;;;;6.55;5.90;;;25.90;99.90;;;;;;5078621;28;20175;-76
2023/08/27 10:26:12;;;;;;;6.20;5.65;;;25.90;99.90;;;;;;5093242;28;20235;-77
2023/08/27 10:28:38;;;;;;;6.10;5.60;;;25.90;99.90;;;;;;5079165;28;20198;-76
2023/08/27 10:31:05;;;;;;;11.38;9.30;;;26.00;99.90;;;;;;5082176;28;20647;-76
2023/08/27 10:33:31;;;;;;;13.88;9.52;;;26.10;99.90;;;;;;5078281;28;20224;-78
2023/08/27 10:36:02;;;;;;;7.05;6.38;;;26.20;99.90;;;;;;5084570;28;20194;-76
2023/08/27 10:38:29;;;;;;;6.90;6.30;;;26.30;99.90;;;;;;5075048;28;20589;-76
2023/08/27 10:40:55;;;;;;;6.72;6.25;;;26.40;99.90;;;;;;5076983;28;20163;-77
2023/08/27 10:43:22;;;;;;;7.78;6.95;;;26.10;99.90;;;;;;5080402;28;20187;-77
2023/08/27 10:45:48;;;;;;;6.70;6.13;;;26.10;99.90;;;;;;5078309;28;20195;-77
2023/08/27 10:48:17;;;;;;;7.55;5.78;;;26.10;99.90;;;;;;5079407;28;20190;-77
2023/08/27 10:50:47;;;;;;;5.72;5.32;;;26.10;99.90;;;;;;5079295;28;20513;-76
2023/08/27 10:53:14;;;;;;;7.90;6.70;;;26.10;99.90;;;;;;5077593;28;20198;-76
2023/08/27 10:55:48;;;;;;;5.65;5.25;;;26.30;99.90;;;;;;5077922;28;20167;-76
2023/08/27 10:58:22;;;;;;;6.38;5.88;;;26.40;99.90;;;;;;5078494;28;20253;-77
2023/08/27 11:00:59;;;;;;;6.97;5.53;;;26.50;99.90;;;;;;5077213;28;20169;-76
2023/08/27 11:03:25;;;;;;;6.25;5.75;;;26.60;99.90;;;;;;5076803;28;20193;-77
2023/08/27 11:06:31;;;;;;;5.88;5.45;;;26.70;99.90;;;;;;5076812;28;20173;-79
2023/08/27 11:08:58;;;;;;;6.25;5.65;;;26.70;99.90;;;;;;5016908;28;20192;-77
2023/08/27 11:11:25;;;;;;;7.10;5.45;;;26.90;99.90;;;;;;5000709;28;20228;-77
2023/08/27 11:14:04;;;;;;;6.05;5.63;;;26.80;99.90;;;;;;5015815;28;20223;-76
2023/08/27 11:16:29;;;;;;;6.50;5.90;;;26.70;99.90;;;;;;5015686;28;20165;-77
2023/08/27 11:18:56;;;;;;;7.07;6.57;;;26.60;99.90;;;;;;5035197;28;20184;-78
2023/08/27 11:21:24;;;;;;;6.72;6.05;;;26.60;99.90;;;;;;5039814;28;20177;-77
2023/08/27 11:24:12;;;;;;;6.25;5.78;;;26.70;99.90;;;;;;5039544;28;20194;-78
2023/08/27 11:26:39;;;;;;;6.70;6.07;;;26.70;99.90;;;;;;5032432;28;20189;-78
2023/08/27 11:29:08;;;;;;;7.20;6.55;;;26.80;99.90;;;;;;5040141;28;20177;-80
2023/08/27 11:31:34;;;;;;;7.00;6.38;;;26.90;99.90;;;;;;5039285;28;20169;-77
2023/08/27 11:34:04;;;;;;;7.15;6.63;;;27.00;99.90;;;;;;5037796;28;20228;-77
2023/08/27 11:36:30;;;;;;;6.20;5.70;;;27.00;99.90;;;;;;5035680;28;20173;-78
2023/08/27 11:38:59;;;;;;;6.72;6.13;;;26.90;99.90;;;;;;5034967;28;20230;-80
2023/08/27 11:41:25;;;;;;;6.35;5.80;;;26.80;99.90;;;;;;5017517;28;20208;-77
2023/08/27 11:43:54;;;;;;;7.00;6.28;;;26.90;99.90;;;;;;5028343;28;20166;-77
2023/08/27 11:46:21;;;;;;;6.30;5.80;;;27.00;99.90;;;;;;5094619;28;20182;-76
2023/08/27 11:48:50;;;;;;;6.15;5.68;;;27.10;99.90;;;;;;5081406;28;20175;-75
2023/08/27 11:51:35;;;;;;;6.15;5.57;;;27.10;99.90;;;;;;5058235;28;20175;-77
2023/08/27 11:54:07;;;;;;;9.30;6.03;;;27.10;99.90;;;;;;5076887;28;20195;-77
2023/08/27 11:56:35;;;;;;;6.00;5.50;;;27.20;99.90;;;;;;5077169;28;20175;-76
2023/08/27 11:59:03;;;;;;;6.85;6.25;;;27.30;99.90;;;;;;5077798;28;20238;-76
2023/08/27 12:01:29;;;;;;;6.50;6.00;;;27.40;99.90;;;;;;5076594;28;20253;-77
2023/08/27 12:03:55;;;;;;;6.55;5.90;;;27.30;99.90;;;;;;5079450;28;20638;-77
2023/08/27 12:06:25;;;;;;;6.50;5.90;;;27.30;99.90;;;;;;5078232;28;20197;-76
2023/08/27 12:08:54;;;;;;;6.13;5.53;;;27.40;99.90;;;;;;5076556;28;20171;-77
2023/08/27 12:11:26;;;;;;;6.57;6.05;;;27.50;99.90;;;;;;5075640;28;20222;-78
2023/08/27 12:13:55;;;;;;;6.20;5.80;;;27.40;99.90;;;;;;5057647;28;20230;-78
2023/08/27 12:16:34;;;;;;;6.47;5.88;;;27.30;99.90;;;;;;5075931;28;20591;-76
2023/08/27 12:19:08;;;;;;;6.43;5.93;;;27.30;99.90;;;;;;5041842;28;20250;-76
2023/08/27 12:21:58;;;;;;;7.43;6.72;;;27.40;99.90;;;;;;5060683;28;20174;-76
2023/08/27 12:25:00;;;;;;;7.18;6.63;;;27.40;99.90;;;;;;5065477;28;20202;-78
2023/08/27 12:43:19;;;;;;;7.00;6.47;;;27.70;99.90;;;;;;4975471;28;20249;-75
2023/08/27 12:47:27;;;;;;;7.00;6.40;;;27.70;99.90;;;;;;4916906;29;20338;-77
2023/08/27 14:14:27;;;;;;;6.95;6.35;;;28.70;99.90;;;;;;5074399;28;21089;-76
2023/08/27 14:16:53;;;;;;;6.45;6.03;;;28.80;99.90;;;;;;5047829;28;20206;-76
2023/08/27 14:19:20;;;;;;;6.88;6.28;;;28.80;99.90;;;;;;5036199;28;20647;-77
2023/08/27 14:21:46;;;;;;;7.80;6.97;;;28.90;99.90;;;;;;5052975;28;20479;-77
2023/08/27 14:24:13;;;;;;;7.63;7.03;;;29.10;99.90;;;;;;5052890;28;20533;-76
2023/08/27 14:26:39;;;;;;;8.00;7.30;;;29.10;99.90;;;;;;5053109;28;20183;-76
2023/08/27 14:29:06;;;;;;;7.70;7.00;;;29.10;99.90;;;;;;5053073;28;20168;-77